Time;durP1;ratioP1;P1;durP2;ratioP2;P2;SDS_P1;SDS_P2;PMS_P1;PMS_P2;Temp;Humidity;BMP_temperature;BMP_pressure;BME280_temperature;BME280_humidity;BME280_pressure;Samples;Min_cycle;Max_cycle;Signal;HPM_P1;HPM_P2
2023/12/14 00:00:38;;;;;;;;;;;5.20;99.90;;;;;;5100933;28;19937;-31
2023/12/14 00:03:05;;;;;;;;;;;5.20;99.90;;;;;;5113388;28;19979;-31
2023/12/14 00:05:31;;;;;;;;;;;5.20;99.90;;;;;;5113606;28;19969;-31
2023/12/14 00:07:59;;;;;;;;;;;5.20;99.90;;;;;;5114748;28;20272;-31
2023/12/14 00:10:26;;;;;;;;;;;5.20;99.90;;;;;;5112785;28;19991;-31
2023/12/14 00:12:55;;;;;;;;;;;5.20;99.90;;;;;;5103907;28;19985;-30
2023/12/14 00:15:21;;;;;;;;;;;5.20;99.90;;;;;;5093974;28;19956;-31
2023/12/14 00:17:48;;;;;;;;;;;5.20;99.90;;;;;;5083136;28;19942;-31
2023/12/14 00:20:15;;;;;;;;;;;5.20;99.90;;;;;;5109944;28;20372;-31
2023/12/14 00:22:42;;;;;;;;;;;5.20;99.90;;;;;;5076810;28;20315;-31
2023/12/14 00:25:10;;;;;;;;;;;5.10;99.90;;;;;;5080251;28;19941;-32
2023/12/14 00:27:36;;;;;;;;;;;5.10;99.90;;;;;;5088593;28;19942;-31
2023/12/14 00:30:03;;;;;;;;;;;5.10;99.90;;;;;;5099091;28;19979;-31
2023/12/14 00:32:30;;;;;;;;;;;5.10;99.90;;;;;;5101466;28;19960;-31
2023/12/14 00:34:56;;;;;;;;;;;5.10;99.90;;;;;;5077084;28;20024;-31
2023/12/14 00:37:23;;;;;;;;;;;5.10;99.90;;;;;;5076892;28;19936;-31
2023/12/14 00:39:50;;;;;;;;;;;5.10;99.90;;;;;;5071155;28;19985;-32
2023/12/14 00:42:18;;;;;;;;;;;5.10;99.90;;;;;;5081376;28;19945;-32
2023/12/14 00:44:44;;;;;;;;;;;5.10;99.90;;;;;;5095149;28;20321;-31
2023/12/14 00:47:11;;;;;;;;;;;5.10;99.90;;;;;;5090381;28;20304;-32
2023/12/14 00:49:38;;;;;;;;;;;5.10;99.90;;;;;;5081689;28;19984;-31
2023/12/14 00:52:05;;;;;;;;;;;5.10;99.90;;;;;;5095101;28;20045;-32
2023/12/14 00:54:32;;;;;;;;;;;5.10;99.90;;;;;;5114031;28;20289;-30
2023/12/14 00:56:58;;;;;;;;;;;5.10;99.90;;;;;;5100140;28;20022;-31
2023/12/14 00:59:26;;;;;;;;;;;5.00;99.90;;;;;;5091267;28;19936;-30
2023/12/14 01:01:53;;;;;;;;;;;5.10;99.90;;;;;;5094761;28;19995;-31
2023/12/14 01:04:20;;;;;;;;;;;5.00;99.90;;;;;;5095726;28;20304;-31
2023/12/14 01:06:46;;;;;;;;;;;5.00;99.90;;;;;;5079267;28;20417;-31
2023/12/14 01:09:13;;;;;;;;;;;5.00;99.90;;;;;;5093351;28;19933;-31
2023/12/14 01:11:39;;;;;;;;;;;5.00;99.90;;;;;;5080834;28;19980;-30
2023/12/14 01:14:06;;;;;;;;;;;5.00;99.90;;;;;;5096771;28;19967;-32
2023/12/14 01:16:34;;;;;;;;;;;5.00;99.90;;;;;;5114334;28;20359;-31
2023/12/14 01:19:01;;;;;;;;;;;5.00;99.90;;;;;;5103138;28;19938;-31
2023/12/14 01:21:27;;;;;;;;;;;5.00;99.90;;;;;;5101014;28;19948;-31
2023/12/14 01:23:54;;;;;;;;;;;5.00;99.90;;;;;;5088223;28;20360;-31
2023/12/14 01:26:21;;;;;;;;;;;4.90;99.90;;;;;;5072368;28;19938;-30
2023/12/14 01:28:47;;;;;;;;;;;4.90;99.90;;;;;;5087535;28;19995;-31
2023/12/14 01:31:14;;;;;;;;;;;4.90;99.90;;;;;;5092045;28;20326;-31
2023/12/14 01:33:42;;;;;;;;;;;5.00;99.90;;;;;;5090952;28;19992;-32
2023/12/14 01:36:09;;;;;;;;;;;5.00;99.90;;;;;;5075377;28;19935;-31
2023/12/14 01:38:35;;;;;;;;;;;4.90;99.90;;;;;;5100026;28;20344;-32
2023/12/14 01:41:02;;;;;;;;;;;4.90;99.90;;;;;;5094113;28;19937;-31
2023/12/14 01:43:29;;;;;;;;;;;4.90;99.90;;;;;;5071945;28;20050;-31
2023/12/14 01:45:55;;;;;;;;;;;4.90;99.90;;;;;;5112876;28;20004;-31
2023/12/14 01:48:22;;;;;;;;;;;4.90;99.90;;;;;;5073501;28;19987;-32
2023/12/14 01:50:50;;;;;;;;;;;4.90;99.90;;;;;;5075810;28;19942;-32
2023/12/14 01:53:16;;;;;;;;;;;4.80;99.90;;;;;;5075501;28;20150;-31
2023/12/14 01:55:43;;;;;;;;;;;4.80;99.90;;;;;;5107127;28;19956;-32
2023/12/14 01:58:10;;;;;;;;;;;4.90;99.90;;;;;;5094643;28;19946;-32
2023/12/14 02:00:37;;;;;;;;;;;4.80;99.90;;;;;;5113213;28;20447;-31
2023/12/14 02:03:04;;;;;;;;;;;4.80;99.90;;;;;;5080553;28;20116;-31
2023/12/14 02:05:31;;;;;;;;;;;4.80;99.90;;;;;;5095203;28;19985;-32
2023/12/14 02:07:59;;;;;;;;;;;4.80;99.90;;;;;;5092330;28;20002;-31
2023/12/14 02:10:25;;;;;;;;;;;4.80;99.90;;;;;;5095818;28;20088;-31
2023/12/14 02:12:52;;;;;;;;;;;4.80;99.90;;;;;;5104755;28;20315;-32
2023/12/14 02:15:20;;;;;;;;;;;4.80;99.90;;;;;;5092657;28;20427;-31
2023/12/14 02:17:46;;;;;;;;;;;4.80;99.90;;;;;;5092429;28;19941;-31
2023/12/14 02:20:13;;;;;;;;;;;4.70;99.90;;;;;;5074794;28;20348;-32
2023/12/14 02:22:51;;;;;;;;;;;4.80;99.90;;;;;;5075396;28;20383;-32
2023/12/14 02:25:17;;;;;;;;;;;4.70;99.90;;;;;;5102567;28;20027;-31
2023/12/14 02:27:44;;;;;;;;;;;4.70;99.90;;;;;;5101129;28;19972;-32
2023/12/14 02:30:11;;;;;;;;;;;4.80;99.90;;;;;;5110075;28;19936;-31
2023/12/14 02:32:38;;;;;;;;;;;4.80;99.90;;;;;;5104304;28;19984;-31
2023/12/14 02:35:05;;;;;;;;;;;4.80;99.90;;;;;;5085568;28;20036;-31
2023/12/14 02:37:31;;;;;;;;;;;4.70;99.90;;;;;;5107457;28;19977;-30
2023/12/14 02:40:00;;;;;;;;;;;4.70;99.90;;;;;;5094885;28;20022;-31
2023/12/14 02:42:27;;;;;;;;;;;4.70;99.90;;;;;;5093339;28;20433;-31
2023/12/14 02:44:54;;;;;;;;;;;4.70;99.90;;;;;;5074197;28;19941;-31
2023/12/14 02:47:20;;;;;;;;;;;4.70;99.90;;;;;;5112500;28;19942;-32
2023/12/14 02:49:47;;;;;;;;;;;4.70;99.90;;;;;;5084460;28;20457;-31
2023/12/14 02:52:13;;;;;;;;;;;4.70;99.90;;;;;;5077755;28;19938;-32
2023/12/14 02:54:40;;;;;;;;;;;4.70;99.90;;;;;;5082533;28;19999;-31
2023/12/14 02:57:08;;;;;;;;;;;4.70;99.90;;;;;;5091833;28;20394;-32
2023/12/14 02:59:35;;;;;;;;;;;4.70;99.90;;;;;;5074066;28;19937;-31
2023/12/14 03:02:01;;;;;;;;;;;4.70;99.90;;;;;;5084333;28;19939;-32
2023/12/14 03:04:28;;;;;;;;;;;4.70;99.90;;;;;;5105356;28;20355;-32
2023/12/14 03:06:56;;;;;;;;;;;4.70;99.90;;;;;;5108553;28;19939;-31
2023/12/14 03:09:22;;;;;;;;;;;4.70;99.90;;;;;;5083172;28;20318;-32
2023/12/14 03:11:49;;;;;;;;;;;4.70;99.90;;;;;;5092052;28;20437;-32
2023/12/14 03:14:17;;;;;;;;;;;4.70;99.90;;;;;;5122003;27;20012;-31
2023/12/14 03:16:43;;;;;;;;;;;4.60;99.90;;;;;;5105990;27;19939;-32
2023/12/14 03:19:10;;;;;;;;;;;4.60;99.90;;;;;;5115269;27;19976;-31
2023/12/14 03:21:37;;;;;;;;;;;4.70;99.90;;;;;;5087415;28;19939;-31
2023/12/14 03:24:03;;;;;;;;;;;4.70;99.90;;;;;;5094183;28;19987;-31
2023/12/14 03:26:30;;;;;;;;;;;4.70;99.90;;;;;;5094837;28;20307;-32
2023/12/14 03:28:57;;;;;;;;;;;4.60;99.90;;;;;;5094305;28;19936;-32
2023/12/14 03:31:25;;;;;;;;;;;4.70;99.90;;;;;;5076279;28;19942;-32
2023/12/14 03:33:51;;;;;;;;;;;4.60;99.90;;;;;;5086489;28;19939;-32
2023/12/14 03:36:18;;;;;;;;;;;4.70;99.90;;;;;;5093787;28;20005;-31
2023/12/14 03:38:45;;;;;;;;;;;4.70;99.90;;;;;;5112408;28;20344;-31
2023/12/14 03:41:11;;;;;;;;;;;4.70;99.90;;;;;;5093219;28;20388;-32
2023/12/14 03:43:38;;;;;;;;;;;4.70;99.90;;;;;;5101559;28;19973;-31
2023/12/14 03:46:06;;;;;;;;;;;4.70;99.90;;;;;;5087180;28;19942;-31
2023/12/14 03:48:34;;;;;;;;;;;4.60;99.90;;;;;;5107422;28;20494;-31
2023/12/14 03:51:03;;;;;;;;;;;4.60;99.90;;;;;;5077748;28;20355;-32
2023/12/14 03:53:29;;;;;;;;;;;4.60;99.90;;;;;;5098537;28;19947;-31
2023/12/14 03:55:56;;;;;;;;;;;4.70;99.90;;;;;;5098522;28;20423;-30
2023/12/14 03:58:22;;;;;;;;;;;4.60;99.90;;;;;;5098320;28;19975;-32
2023/12/14 04:00:49;;;;;;;;;;;4.70;99.90;;;;;;5096373;28;19992;-31
2023/12/14 04:03:16;;;;;;;;;;;4.70;99.90;;;;;;5116648;28;19988;-31
2023/12/14 04:05:44;;;;;;;;;;;4.70;99.90;;;;;;5098397;28;20443;-31
2023/12/14 04:08:10;;;;;;;;;;;4.70;99.90;;;;;;5115859;28;20018;-31
2023/12/14 04:10:37;;;;;;;;;;;4.70;99.90;;;;;;5097578;28;20512;-31
2023/12/14 04:13:04;;;;;;;;;;;4.70;99.90;;;;;;5109912;27;20487;-31
2023/12/14 04:15:30;;;;;;;;;;;4.70;99.90;;;;;;5077047;28;20006;-31
2023/12/14 04:17:57;;;;;;;;;;;4.60;99.90;;;;;;5096190;28;20041;-30
2023/12/14 04:20:24;;;;;;;;;;;4.70;99.90;;;;;;5098967;28;19944;-31
2023/12/14 04:22:52;;;;;;;;;;;4.70;99.90;;;;;;5092640;28;19988;-32
2023/12/14 04:25:18;;;;;;;;;;;4.70;99.90;;;;;;5090744;28;20276;-32
2023/12/14 04:27:45;;;;;;;;;;;4.70;99.90;;;;;;5076946;28;20388;-32
2023/12/14 04:30:12;;;;;;;;;;;4.70;99.90;;;;;;5093333;28;19936;-32
2023/12/14 04:32:38;;;;;;;;;;;4.70;99.90;;;;;;5083296;28;19940;-31
2023/12/14 04:35:06;;;;;;;;;;;4.70;99.90;;;;;;5097344;28;19956;-30
2023/12/14 04:37:32;;;;;;;;;;;4.70;99.90;;;;;;5084891;28;19935;-31
2023/12/14 04:40:00;;;;;;;;;;;4.70;99.90;;;;;;5076510;28;19938;-31
2023/12/14 04:42:27;;;;;;;;;;;4.70;99.90;;;;;;5090545;28;19991;-31
2023/12/14 04:44:54;;;;;;;;;;;4.70;99.90;;;;;;5103114;28;19983;-32
2023/12/14 04:47:20;;;;;;;;;;;4.60;99.90;;;;;;5090536;28;20382;-32
2023/12/14 04:49:47;;;;;;;;;;;4.70;99.90;;;;;;5076051;28;19991;-31
2023/12/14 04:52:14;;;;;;;;;;;4.60;99.90;;;;;;5092400;28;19942;-32
2023/12/14 04:54:42;;;;;;;;;;;4.70;99.90;;;;;;5078086;28;19981;-31
2023/12/14 04:57:10;;;;;;;;;;;4.70;99.90;;;;;;5083520;28;19989;-31
2023/12/14 04:59:36;;;;;;;;;;;4.80;99.90;;;;;;5075086;28;19935;-32
2023/12/14 05:02:03;;;;;;;;;;;4.60;99.90;;;;;;5074659;28;19985;-31
2023/12/14 05:04:30;;;;;;;;;;;4.70;99.90;;;;;;5076464;28;19985;-32
2023/12/14 05:06:56;;;;;;;;;;;4.70;99.90;;;;;;5091848;28;19993;-31
2023/12/14 05:09:23;;;;;;;;;;;4.60;99.90;;;;;;5094797;28;19938;-32
2023/12/14 05:11:50;;;;;;;;;;;4.70;99.90;;;;;;5075311;28;19942;-32
2023/12/14 05:14:17;;;;;;;;;;;4.60;99.90;;;;;;5104929;27;19965;-32
2023/12/14 05:16:44;;;;;;;;;;;4.60;99.90;;;;;;5115845;27;19957;-31
2023/12/14 05:19:12;;;;;;;;;;;4.70;99.90;;;;;;5118222;27;20002;-32
2023/12/14 05:21:39;;;;;;;;;;;4.70;99.90;;;;;;5116200;27;19971;-32
2023/12/14 05:24:06;;;;;;;;;;;4.60;99.90;;;;;;5135827;27;19991;-31
2023/12/14 05:26:32;;;;;;;;;;;4.70;99.90;;;;;;5117005;27;19939;-31
2023/12/14 05:28:59;;;;;;;;;;;4.70;99.90;;;;;;5115858;27;19937;-31
2023/12/14 05:31:27;;;;;;;;;;;4.60;99.90;;;;;;5117225;27;19939;-30
2023/12/14 05:33:54;;;;;;;;;;;4.70;99.90;;;;;;5116886;27;19969;-30
2023/12/14 05:36:21;;;;;;;;;;;4.60;99.90;;;;;;5110636;27;19997;-30
2023/12/14 05:38:47;;;;;;;;;;;4.60;99.90;;;;;;5116551;27;19923;-31
2023/12/14 05:41:14;;;;;;;;;;;4.60;99.90;;;;;;5114400;27;19970;-31
2023/12/14 05:43:40;;;;;;;;;;;4.60;99.90;;;;;;5134237;27;19923;-31
2023/12/14 05:46:07;;;;;;;;;;;4.60;99.90;;;;;;5116220;27;19941;-31
2023/12/14 05:48:36;;;;;;;;;;;4.60;99.90;;;;;;5116649;27;19963;-31
2023/12/14 05:51:02;;;;;;;;;;;4.60;99.90;;;;;;5135342;27;19943;-31
2023/12/14 05:53:29;;;;;;;;;;;4.60;99.90;;;;;;5116430;27;20469;-30
2023/12/14 05:55:56;;;;;;;;;;;4.70;99.90;;;;;;5131448;27;20043;-32
2023/12/14 05:58:22;;;;;;;;;;;4.60;99.90;;;;;;5104089;27;19979;-31
2023/12/14 06:00:49;;;;;;;;;;;4.60;99.90;;;;;;5116278;27;20007;-32
2023/12/14 06:03:16;;;;;;;;;;;4.60;99.90;;;;;;5117008;27;20009;-32
2023/12/14 06:05:44;;;;;;;;;;;4.70;99.90;;;;;;5133911;27;20432;-31
2023/12/14 06:08:10;;;;;;;;;;;4.60;99.90;;;;;;5114607;27;20308;-31
2023/12/14 06:10:37;;;;;;;;;;;4.60;99.90;;;;;;5134053;27;19936;-32
2023/12/14 06:13:04;;;;;;;;;;;4.60;99.90;;;;;;5119990;27;20446;-31
2023/12/14 06:15:31;;;;;;;;;;;4.60;99.90;;;;;;5134929;27;20392;-32
2023/12/14 06:17:57;;;;;;;;;;;4.60;99.90;;;;;;5112963;27;19987;-32
2023/12/14 06:20:24;;;;;;;;;;;4.60;99.90;;;;;;5133951;27;19944;-32
2023/12/14 06:22:52;;;;;;;;;;;4.60;99.90;;;;;;5114761;27;20004;-32
2023/12/14 06:25:19;;;;;;;;;;;4.60;99.90;;;;;;5105550;27;20375;-31
2023/12/14 06:27:46;;;;;;;;;;;4.60;99.90;;;;;;5114750;27;19942;-32
2023/12/14 06:30:12;;;;;;;;;;;4.60;99.90;;;;;;5109499;27;19959;-31
2023/12/14 06:32:39;;;;;;;;;;;4.60;99.90;;;;;;5115891;27;20400;-32
2023/12/14 06:35:06;;;;;;;;;;;4.60;99.90;;;;;;5115179;27;19987;-32
2023/12/14 06:37:33;;;;;;;;;;;4.60;99.90;;;;;;5125244;27;20004;-32
2023/12/14 06:40:01;;;;;;;;;;;4.60;99.90;;;;;;5115568;27;19947;-31
2023/12/14 06:42:28;;;;;;;;;;;4.60;99.90;;;;;;5119709;27;20075;-32
2023/12/14 06:44:55;;;;;;;;;;;4.60;99.90;;;;;;5112167;27;19942;-32
2023/12/14 06:47:21;;;;;;;;;;;4.60;99.90;;;;;;5110510;27;19977;-31
2023/12/14 06:49:50;;;;;;;;;;;4.60;99.90;;;;;;5130537;27;19991;-32
2023/12/14 06:52:16;;;;;;;;;;;4.60;99.90;;;;;;5115360;27;19961;-32
2023/12/14 06:54:43;;;;;;;;;;;4.60;99.90;;;;;;5133679;27;19992;-32
2023/12/14 06:57:11;;;;;;;;;;;4.70;99.90;;;;;;5115657;27;20004;-31
2023/12/14 06:59:37;;;;;;;;;;;4.60;99.90;;;;;;5111655;27;19923;-32
2023/12/14 07:02:04;;;;;;;;;;;4.60;99.90;;;;;;5132139;27;20353;-31
2023/12/14 07:04:31;;;;;;;;;;;4.60;99.90;;;;;;5114590;27;19934;-31
2023/12/14 07:06:58;;;;;;;;;;;4.60;99.90;;;;;;5111644;27;20346;-31
2023/12/14 07:09:25;;;;;;;;;;;4.60;99.90;;;;;;5121558;27;19936;-31
2023/12/14 07:11:52;;;;;;;;;;;4.60;99.90;;;;;;5113338;27;19961;-32
2023/12/14 07:14:20;;;;;;;;;;;4.60;99.90;;;;;;5115259;27;19963;-32
2023/12/14 07:16:47;;;;;;;;;;;4.60;99.90;;;;;;5132746;27;19954;-32
2023/12/14 07:19:13;;;;;;;;;;;4.60;99.90;;;;;;5112713;27;19941;-32
2023/12/14 07:21:40;;;;;;;;;;;4.60;99.90;;;;;;5113133;27;20441;-31
2023/12/14 07:24:07;;;;;;;;;;;4.60;99.90;;;;;;5112086;28;19961;-32
2023/12/14 07:26:33;;;;;;;;;;;4.60;99.90;;;;;;5111931;27;19981;-31
2023/12/14 07:29:00;;;;;;;;;;;4.60;99.90;;;;;;5130382;27;20351;-32
2023/12/14 07:31:29;;;;;;;;;;;4.60;99.90;;;;;;5095068;28;19941;-32
2023/12/14 07:33:55;;;;;;;;;;;4.60;99.90;;;;;;5105549;28;19938;-31
2023/12/14 07:36:23;;;;;;;;;;;4.60;99.90;;;;;;5104213;27;20058;-31
2023/12/14 07:38:49;;;;;;;;;;;4.60;99.90;;;;;;5121275;27;20321;-31
2023/12/14 07:41:16;;;;;;;;;;;4.60;99.90;;;;;;5109570;28;19945;-31
2023/12/14 07:43:43;;;;;;;;;;;4.60;99.90;;;;;;5106463;28;19944;-32
2023/12/14 07:46:09;;;;;;;;;;;4.60;99.90;;;;;;5121914;28;19939;-31
2023/12/14 07:48:37;;;;;;;;;;;4.60;99.90;;;;;;5132091;28;19982;-32
2023/12/14 07:51:04;;;;;;;;;;;4.60;99.90;;;;;;5113160;28;19989;-31
2023/12/14 07:53:31;;;;;;;;;;;4.60;99.90;;;;;;5108899;28;19981;-32
2023/12/14 07:55:58;;;;;;;;;;;4.60;99.90;;;;;;5129773;28;20016;-31
2023/12/14 07:58:25;;;;;;;;;;;4.60;99.90;;;;;;5108884;28;19936;-32
2023/12/14 08:00:52;;;;;;;;;;;4.60;99.90;;;;;;5131077;28;19940;-31
2023/12/14 08:03:19;;;;;;;;;;;4.60;99.90;;;;;;5130467;28;19963;-32
2023/12/14 08:05:47;;;;;;;;;;;4.60;99.90;;;;;;5109579;28;20385;-32
2023/12/14 08:08:13;;;;;;;;;;;4.70;99.90;;;;;;5113280;28;19992;-30
2023/12/14 08:10:40;;;;;;;;;;;4.60;99.90;;;;;;5099461;28;20447;-31
2023/12/14 08:13:07;;;;;;;;;;;4.60;99.90;;;;;;5105341;28;19967;-32
2023/12/14 08:15:33;;;;;;;;;;;4.70;99.90;;;;;;5111836;28;19936;-31
2023/12/14 08:18:00;;;;;;;;;;;4.70;99.90;;;;;;5104461;28;20338;-31
2023/12/14 08:20:27;;;;;;;;;;;4.60;99.90;;;;;;5133152;28;19943;-32
2023/12/14 08:22:55;;;;;;;;;;;4.70;99.90;;;;;;5113381;28;20038;-31
2023/12/14 08:25:21;;;;;;;;;;;4.80;99.90;;;;;;5132782;28;19938;-31
2023/12/14 08:27:48;;;;;;;;;;;4.70;99.90;;;;;;5106656;28;19946;-32
2023/12/14 08:30:15;;;;;;;;;;;4.70;99.90;;;;;;5094798;28;20284;-31
2023/12/14 08:32:41;;;;;;;;;;;4.70;99.90;;;;;;5094586;28;19966;-31
2023/12/14 08:35:08;;;;;;;;;;;4.80;99.90;;;;;;5112480;28;19941;-32
2023/12/14 08:37:36;;;;;;;;;;;4.70;99.90;;;;;;5109521;27;19950;-33
2023/12/14 08:40:04;;;;;;;;;;;4.70;99.90;;;;;;5116080;28;19993;-32
2023/12/14 08:42:31;;;;;;;;;;;4.70;99.90;;;;;;5101247;27;19941;-32
2023/12/14 08:44:57;;;;;;;;;;;4.80;99.90;;;;;;5118821;27;19941;-32
2023/12/14 08:47:24;;;;;;;;;;;4.70;99.90;;;;;;5118642;27;19978;-32
2023/12/14 08:49:51;;;;;;;;;;;4.80;99.90;;;;;;5118097;27;19948;-32
2023/12/14 08:52:17;;;;;;;;;;;4.80;99.90;;;;;;5118340;27;20054;-32
2023/12/14 08:54:44;;;;;;;;;;;4.70;99.90;;;;;;5118303;27;20444;-32
2023/12/14 08:57:12;;;;;;;;;;;4.80;99.90;;;;;;5134505;27;20320;-32
2023/12/14 08:59:39;;;;;;;;;;;4.80;99.90;;;;;;5136413;27;20296;-31
2023/12/14 09:02:05;;;;;;;;;;;4.90;99.90;;;;;;5118519;27;19938;-33
2023/12/14 09:04:32;;;;;;;;;;;4.80;99.90;;;;;;5136291;27;19940;-32
2023/12/14 09:06:59;;;;;;;;;;;4.80;99.90;;;;;;5103898;28;19947;-31
2023/12/14 09:09:25;;;;;;;;;;;4.90;99.90;;;;;;5097539;28;19932;-32
2023/12/14 09:11:52;;;;;;;;;;;4.90;99.90;;;;;;5097716;28;19949;-31
2023/12/14 09:14:20;;;;;;;;;;;4.90;99.90;;;;;;5097373;28;20515;-32
2023/12/14 09:16:47;;;;;;;;;;;4.90;99.90;;;;;;5097427;28;19955;-32
2023/12/14 09:19:13;;;;;;;;;;;4.90;99.90;;;;;;5115610;28;19945;-33
2023/12/14 09:21:40;;;;;;;;;;;4.90;99.90;;;;;;5097108;28;20369;-32
2023/12/14 09:24:07;;;;;;;;;;;5.00;99.90;;;;;;5115315;28;20381;-32
2023/12/14 09:26:33;;;;;;;;;;;4.90;99.90;;;;;;5115523;28;20408;-32
2023/12/14 09:29:00;;;;;;;;;;;5.00;99.90;;;;;;5097432;28;19961;-32
2023/12/14 09:31:28;;;;;;;;;;;5.00;99.90;;;;;;5097130;28;19964;-32
2023/12/14 09:33:54;;;;;;;;;;;5.00;99.90;;;;;;5096875;28;19938;-31
2023/12/14 09:36:21;;;;;;;;;;;5.00;99.90;;;;;;5099696;27;19940;-32
2023/12/14 09:38:48;;;;;;;;;;;5.00;99.90;;;;;;5096946;28;19940;-32
2023/12/14 09:41:14;;;;;;;;;;;5.00;99.90;;;;;;5115192;28;19936;-33
2023/12/14 09:43:41;;;;;;;;;;;5.00;99.90;;;;;;5096892;28;19991;-32
2023/12/14 09:46:08;;;;;;;;;;;5.00;99.90;;;;;;5110996;27;19965;-32
2023/12/14 09:48:36;;;;;;;;;;;5.10;99.90;;;;;;5116434;27;19983;-32
2023/12/14 09:51:03;;;;;;;;;;;5.10;99.90;;;;;;5117150;27;19942;-31
2023/12/14 09:53:29;;;;;;;;;;;5.10;99.90;;;;;;5117405;27;19939;-32
2023/12/14 09:55:56;;;;;;;;;;;5.10;99.90;;;;;;5116709;27;19940;-31
2023/12/14 09:58:22;;;;;;;;;;;5.10;99.90;;;;;;5134867;27;20010;-30
2023/12/14 10:00:48;;;;;;;;;;;5.10;99.90;;;;;;5125466;27;20018;-31
2023/12/14 10:03:18;;;;;;;;;;;5.20;99.90;;;;;;5096957;28;19942;-32
2023/12/14 10:05:47;;;;;;;;;;;5.20;99.90;;;;;;5096205;28;19939;-31
2023/12/14 10:08:13;;;;;;;;;;;5.20;99.90;;;;;;5096343;27;20010;-32
2023/12/14 10:10:40;;;;;;;;;;;5.30;99.90;;;;;;5096709;28;19992;-31
2023/12/14 10:13:06;;;;;;;;;;;5.20;99.90;;;;;;5095987;28;19964;-31
2023/12/14 10:15:41;;;;;;;;;;;5.30;99.90;;;;;;5096817;28;19940;-30
2023/12/14 10:18:07;;;;;;;;;;;5.30;99.90;;;;;;5096231;28;19989;-30
2023/12/14 10:20:34;;;;;;;;;;;5.40;99.90;;;;;;5133185;27;20305;-31
2023/12/14 10:23:02;;;;;;;;;;;5.40;99.90;;;;;;5116554;27;19938;-32
2023/12/14 10:25:29;;;;;;;;;;;5.40;99.90;;;;;;5116480;27;19969;-31
2023/12/14 10:27:55;;;;;;;;;;;5.40;99.90;;;;;;5116521;27;19945;-31
2023/12/14 10:30:22;;;;;;;;;;;5.50;99.90;;;;;;5134419;27;19991;-32
2023/12/14 10:32:48;;;;;;;;;;;5.50;99.90;;;;;;5134123;27;19940;-32
2023/12/14 10:35:16;;;;;;;;;;;5.50;99.90;;;;;;5115984;27;19983;-32
2023/12/14 10:37:43;;;;;;;;;;;5.60;99.90;;;;;;5098351;28;20274;-32
2023/12/14 10:40:11;;;;;;;;;;;5.60;99.90;;;;;;5096130;28;19928;-33
2023/12/14 10:42:38;;;;;;;;;;;5.60;99.90;;;;;;5114003;28;19936;-33
2023/12/14 10:45:06;;;;;;;;;;;5.70;99.90;;;;;;5121515;27;19942;-33
2023/12/14 10:47:33;;;;;;;;;;;5.70;99.90;;;;;;5116089;27;20443;-32
2023/12/14 10:49:59;;;;;;;;;;;5.70;99.90;;;;;;5116045;27;20412;-32
2023/12/14 10:52:26;;;;;;;;;;;5.70;99.90;;;;;;5115697;27;19944;-31
2023/12/14 10:54:54;;;;;;;;;;;5.70;99.90;;;;;;5134151;27;19938;-32
2023/12/14 10:57:22;;;;;;;;;;;5.80;99.90;;;;;;5115964;27;20424;-31
2023/12/14 10:59:49;;;;;;;;;;;5.80;99.90;;;;;;5134028;27;20372;-32
2023/12/14 11:02:16;;;;;;;;;;;5.90;99.90;;;;;;5134077;27;19981;-32
2023/12/14 11:04:55;;;;;;;;;;;5.90;99.90;;;;;;5115471;27;20023;-31
2023/12/14 11:07:37;;;;;;;;;;;6.00;99.90;;;;;;5099335;28;19940;-31
2023/12/14 11:10:04;;;;;;;;;;;6.00;99.90;;;;;;5120664;27;19983;-32
2023/12/14 11:12:32;;;;;;;;;;;6.00;99.90;;;;;;5115423;27;20305;-32
2023/12/14 11:14:58;;;;;;;;;;;6.10;99.90;;;;;;5134292;27;20347;-32
2023/12/14 11:17:25;;;;;;;;;;;6.10;99.90;;;;;;5133633;27;20011;-32
2023/12/14 11:19:53;;;;;;;;;;;6.10;99.90;;;;;;5133431;27;19941;-32
2023/12/14 11:22:24;;;;;;;;;;;6.10;99.90;;;;;;5115568;27;19981;-32
2023/12/14 11:24:54;;;;;;;;;;;6.10;99.90;;;;;;5115017;27;19940;-32
2023/12/14 11:27:21;;;;;;;;;;;6.20;99.90;;;;;;5115386;27;20002;-32
2023/12/14 11:29:50;;;;;;;;;;;6.20;99.90;;;;;;5115313;27;19924;-32
2023/12/14 11:32:17;;;;;;;;;;;6.20;99.90;;;;;;5115467;28;19938;-32
2023/12/14 11:34:44;;;;;;;;;;;6.20;99.90;;;;;;5103518;28;19938;-31
2023/12/14 11:37:10;;;;;;;;;;;6.20;99.90;;;;;;5118006;27;19998;-33
2023/12/14 11:39:38;;;;;;;;;;;6.20;99.90;;;;;;5133339;27;20353;-32
2023/12/14 11:42:06;;;;;;;;;;;6.20;99.90;;;;;;5122513;28;19939;-31
2023/12/14 11:44:33;;;;;;;;;;;6.20;99.90;;;;;;5115109;28;19939;-32
2023/12/14 11:47:01;;;;;;;;;;;6.30;99.90;;;;;;5114903;28;19941;-32
2023/12/14 11:49:27;;;;;;;;;;;6.30;99.90;;;;;;5133454;28;19988;-31
2023/12/14 11:51:55;;;;;;;;;;;6.30;99.90;;;;;;5115270;28;19991;-32
2023/12/14 11:54:22;;;;;;;;;;;6.40;99.90;;;;;;5115238;28;19942;-32
2023/12/14 11:56:48;;;;;;;;;;;6.30;99.90;;;;;;5114982;28;19945;-32
2023/12/14 11:59:15;;;;;;;;;;;6.40;99.90;;;;;;5103249;28;20404;-32
2023/12/14 12:01:54;;;;;;;;;;;6.40;99.90;;;;;;5101667;28;19942;-32
2023/12/14 12:04:22;;;;;;;;;;;6.40;99.90;;;;;;5113861;28;19939;-31
2023/12/14 12:06:48;;;;;;;;;;;6.40;99.90;;;;;;5132565;28;20360;-32
2023/12/14 12:09:17;;;;;;;;;;;6.40;99.90;;;;;;5131596;28;20351;-32
2023/12/14 12:11:43;;;;;;;;;;;6.40;99.90;;;;;;5113940;27;19982;-31
2023/12/14 12:14:10;;;;;;;;;;;6.40;99.90;;;;;;5110109;28;20025;-32
2023/12/14 12:16:36;;;;;;;;;;;6.40;99.90;;;;;;5099268;27;19994;-32
2023/12/14 12:19:03;;;;;;;;;;;6.40;99.90;;;;;;5108607;27;20003;-32
2023/12/14 12:21:33;;;;;;;;;;;6.40;99.90;;;;;;5117936;27;21112;-33
2023/12/14 12:24:00;;;;;;;;;;;6.40;99.90;;;;;;5137270;27;20343;-31
2023/12/14 12:26:26;;;;;;;;;;;6.50;99.90;;;;;;5119165;27;20384;-31
2023/12/14 12:28:53;;;;;;;;;;;6.50;99.90;;;;;;5118739;27;19943;-32
2023/12/14 12:31:20;;;;;;;;;;;6.50;99.90;;;;;;5117349;27;19941;-32
2023/12/14 12:33:47;;;;;;;;;;;6.50;99.90;;;;;;5118584;27;19943;-32
2023/12/14 12:36:13;;;;;;;;;;;6.50;99.90;;;;;;5120564;27;19943;-32
2023/12/14 12:38:41;;;;;;;;;;;6.50;99.90;;;;;;5135444;27;19961;-32
2023/12/14 12:41:08;;;;;;;;;;;6.50;99.90;;;;;;5136620;27;19939;-32
2023/12/14 12:43:34;;;;;;;;;;;6.50;99.90;;;;;;5118167;27;19996;-32
2023/12/14 12:46:02;;;;;;;;;;;6.50;99.90;;;;;;5118835;27;20353;-31
2023/12/14 12:48:29;;;;;;;;;;;6.60;99.90;;;;;;5117301;27;20011;-30
2023/12/14 12:50:56;;;;;;;;;;;6.50;99.90;;;;;;5118516;27;20282;-32
2023/12/14 12:53:22;;;;;;;;;;;6.50;99.90;;;;;;5118151;27;20388;-32
2023/12/14 12:55:50;;;;;;;;;;;6.50;99.90;;;;;;5118037;27;19939;-32
2023/12/14 12:58:17;;;;;;;;;;;6.50;99.90;;;;;;5117774;27;19962;-31
2023/12/14 13:00:44;;;;;;;;;;;6.50;99.90;;;;;;5117526;27;19994;-31
2023/12/14 13:03:10;;;;;;;;;;;6.50;99.90;;;;;;5117240;27;19978;-31
2023/12/14 13:05:37;;;;;;;;;;;6.40;99.90;;;;;;5116847;27;19935;-32
2023/12/14 13:08:04;;;;;;;;;;;6.40;99.90;;;;;;5116433;27;19940;-31
2023/12/14 13:10:30;;;;;;;;;;;6.40;99.90;;;;;;5117330;27;20255;-32
2023/12/14 13:12:58;;;;;;;;;;;6.40;99.90;;;;;;5132014;27;20311;-32
2023/12/14 13:15:26;;;;;;;;;;;6.40;99.90;;;;;;5134951;27;19942;-33
2023/12/14 13:17:53;;;;;;;;;;;6.40;99.90;;;;;;5135531;27;19953;-31
2023/12/14 13:20:20;;;;;;;;;;;6.40;99.90;;;;;;5117538;27;19982;-31
2023/12/14 13:22:47;;;;;;;;;;;6.40;99.90;;;;;;5115267;27;19936;-32
2023/12/14 13:25:14;;;;;;;;;;;6.40;99.90;;;;;;5117492;27;19974;-32
2023/12/14 13:27:40;;;;;;;;;;;6.40;99.90;;;;;;5116291;27;19937;-32
2023/12/14 13:30:10;;;;;;;;;;;6.40;99.90;;;;;;5116406;27;19969;-31
2023/12/14 13:32:37;;;;;;;;;;;6.40;99.90;;;;;;5135935;27;19943;-32
2023/12/14 13:35:04;;;;;;;;;;;6.40;99.90;;;;;;5116975;27;19992;-32
2023/12/14 13:37:30;;;;;;;;;;;6.30;99.90;;;;;;5111179;27;19938;-32
2023/12/14 13:39:57;;;;;;;;;;;6.40;99.90;;;;;;5116575;27;19937;-31
2023/12/14 13:42:24;;;;;;;;;;;6.30;99.90;;;;;;5117144;27;20001;-31
2023/12/14 13:44:50;;;;;;;;;;;6.30;99.90;;;;;;5117458;27;20470;-31
2023/12/14 13:47:18;;;;;;;;;;;6.30;99.90;;;;;;5115357;27;19983;-33
2023/12/14 13:49:45;;;;;;;;;;;6.30;99.90;;;;;;5116607;27;19940;-32
2023/12/14 13:52:12;;;;;;;;;;;6.30;99.90;;;;;;5112700;27;19936;-32
2023/12/14 13:54:38;;;;;;;;;;;6.30;99.90;;;;;;5115202;27;20378;-32
2023/12/14 13:57:05;;;;;;;;;;;6.30;99.90;;;;;;5116248;27;19938;-32
2023/12/14 13:59:31;;;;;;;;;;;6.30;99.90;;;;;;5115877;27;19960;-32
2023/12/14 14:01:58;;;;;;;;;;;6.30;99.90;;;;;;5133478;27;19938;-32
2023/12/14 14:04:26;;;;;;;;;;;6.30;99.90;;;;;;5113855;27;19996;-31
2023/12/14 14:06:53;;;;;;;;;;;6.30;99.90;;;;;;5129280;27;20383;-32
2023/12/14 14:09:20;;;;;;;;;;;6.30;99.90;;;;;;5134971;27;19998;-32
2023/12/14 14:11:48;;;;;;;;;;;6.30;99.90;;;;;;5116407;27;20381;-32
2023/12/14 14:14:15;;;;;;;;;;;6.30;99.90;;;;;;5116380;27;19971;-31
2023/12/14 14:16:42;;;;;;;;;;;6.30;99.90;;;;;;5117053;27;19945;-32
2023/12/14 14:19:09;;;;;;;;;;;6.30;99.90;;;;;;5115652;27;19952;-32
2023/12/14 14:21:37;;;;;;;;;;;6.20;99.90;;;;;;5116440;27;19987;-32
2023/12/14 14:24:03;;;;;;;;;;;6.20;99.90;;;;;;5134748;27;19990;-32
2023/12/14 14:26:30;;;;;;;;;;;6.20;99.90;;;;;;5134625;27;20391;-32
2023/12/14 14:29:01;;;;;;;;;;;6.10;99.90;;;;;;5116533;27;19937;-31